createdAt,value
2022-07-30T00:01:09.007Z,968
2022-07-30T00:05:51.307Z,967.8
2022-07-30T00:10:32.620Z,967.9
2022-07-30T00:15:14.927Z,967.9
2022-07-30T00:19:57.133Z,967.8
2022-07-30T00:24:39.443Z,968
2022-07-30T00:34:04.058Z,968
2022-07-30T00:38:46.269Z,967.9
2022-07-30T00:43:28.581Z,968
2022-07-30T00:48:10.889Z,968
2022-07-30T00:52:53.115Z,968
2022-07-30T00:57:35.406Z,968
2022-07-30T01:02:17.712Z,968.1
2022-07-30T01:06:59.918Z,968
2022-07-30T01:11:41.230Z,968.1
2022-07-30T01:16:23.541Z,968.1
2022-07-30T01:21:05.845Z,968.1
2022-07-30T01:25:48.054Z,968.2
2022-07-30T01:30:30.364Z,968.1
2022-07-30T01:35:12.673Z,968.2
2022-07-30T01:39:54.978Z,968.2
2022-07-30T01:44:37.212Z,968.2
2022-07-30T01:49:19.497Z,968.1
2022-07-30T01:54:01.806Z,968.1
2022-07-30T01:58:44.016Z,968.1
2022-07-30T02:03:26.322Z,968.2
2022-07-30T02:08:08.633Z,968.2
2022-07-30T02:12:49.940Z,968.3
2022-07-30T02:17:32.152Z,968.2
2022-07-30T02:22:14.462Z,968.3
2022-07-30T02:26:56.769Z,968.3
2022-07-30T02:31:38.979Z,968.3
2022-07-30T02:36:21.288Z,968.3
2022-07-30T02:41:03.594Z,968.2
2022-07-30T02:45:45.899Z,968.2
2022-07-30T02:50:28.111Z,968.3
2022-07-30T02:55:10.420Z,968.3
2022-07-30T02:59:52.744Z,968.3
2022-07-30T03:04:34.943Z,968.3
2022-07-30T03:09:17.248Z,968.3
2022-07-30T03:13:58.551Z,968.3
2022-07-30T03:18:40.864Z,968.3
2022-07-30T03:23:23.068Z,968.4
2022-07-30T03:28:05.382Z,968.4
2022-07-30T03:32:47.688Z,968.3
2022-07-30T03:37:29.894Z,968.4
2022-07-30T03:42:12.207Z,968.4
2022-07-30T03:46:54.512Z,968.4
2022-07-30T03:51:36.725Z,968.4
2022-07-30T03:56:19.032Z,968.5
2022-07-30T04:01:01.340Z,968.5
2022-07-30T04:05:43.656Z,968.6
2022-07-30T04:10:25.868Z,968.6
2022-07-30T04:15:07.166Z,968.6
2022-07-30T04:19:49.474Z,968.6
2022-07-30T04:24:31.786Z,968.6
2022-07-30T04:29:13.993Z,968.6
2022-07-30T04:33:56.309Z,968.6
2022-07-30T04:38:38.606Z,968.7
2022-07-30T04:43:20.818Z,968.7
2022-07-30T04:48:03.139Z,968.8
2022-07-30T04:52:45.438Z,968.8
2022-07-30T04:57:27.768Z,968.8
2022-07-30T05:02:09.954Z,968.9
2022-07-30T05:06:52.266Z,968.9
2022-07-30T05:11:34.570Z,969
2022-07-30T05:16:15.877Z,968.9
2022-07-30T05:20:58.083Z,968.8
2022-07-30T05:25:40.393Z,968.9
2022-07-30T05:30:22.707Z,968.9
2022-07-30T05:35:04.910Z,968.9
2022-07-30T05:39:47.219Z,969
2022-07-30T05:44:29.527Z,969
2022-07-30T05:49:11.734Z,969
2022-07-30T05:53:54.045Z,969
2022-07-30T05:58:36.350Z,968.9
2022-07-30T06:03:18.675Z,969
2022-07-30T06:08:00.873Z,969
2022-07-30T06:12:43.191Z,969.2
2022-07-30T06:17:24.486Z,969.2
2022-07-30T06:22:06.829Z,969.3
2022-07-30T06:26:49.002Z,969.4
2022-07-30T06:31:31.313Z,969.5
2022-07-30T06:36:13.616Z,969.4
2022-07-30T06:40:55.826Z,969.4
2022-07-30T06:45:38.133Z,969.4
2022-07-30T06:50:20.442Z,969.3
2022-07-30T06:55:02.651Z,969.3
2022-07-30T06:59:44.959Z,969.3
2022-07-30T07:04:27.285Z,969.3
2022-07-30T07:09:09.576Z,969.3
2022-07-30T07:13:51.785Z,969.3
2022-07-30T07:18:33.092Z,969.3
2022-07-30T07:23:15.404Z,969.3
2022-07-30T07:27:57.631Z,969.2
2022-07-30T07:32:39.927Z,969.3
2022-07-30T07:37:22.233Z,969.2
2022-07-30T07:42:04.543Z,969.3
2022-07-30T07:46:46.747Z,969.3
2022-07-30T07:51:29.056Z,969.3
2022-07-30T07:56:11.365Z,969.3
2022-07-30T08:00:53.571Z,969.3
2022-07-30T08:05:35.884Z,969.3
2022-07-30T08:10:18.189Z,969.3
2022-07-30T08:15:00.396Z,969.3
2022-07-30T08:19:41.704Z,969.2
2022-07-30T08:24:24.040Z,969.3
2022-07-30T08:29:06.350Z,969.1
2022-07-30T08:33:48.534Z,969.3
2022-07-30T08:38:30.842Z,969.3
2022-07-30T08:43:13.166Z,969.3
2022-07-30T08:47:55.463Z,969.3
2022-07-30T08:52:37.669Z,969.4
2022-07-30T08:57:19.973Z,969.3
2022-07-30T09:02:02.326Z,969.4
2022-07-30T09:06:44.494Z,969.4
2022-07-30T09:11:26.802Z,969.3
2022-07-30T09:16:09.115Z,969.3
2022-07-30T09:20:50.416Z,969.3
2022-07-30T09:25:32.631Z,969.2
2022-07-30T09:30:14.938Z,969.2
2022-07-30T09:34:57.253Z,969.3
2022-07-30T09:39:39.453Z,969.3
2022-07-30T09:44:21.767Z,969.2
2022-07-30T09:49:04.077Z,969.2
2022-07-30T09:53:46.286Z,969.2
2022-07-30T09:58:28.597Z,969.2
2022-07-30T10:03:10.974Z,969.2
2022-07-30T10:07:53.245Z,969.2
2022-07-30T10:12:35.551Z,969.1
2022-07-30T10:17:17.689Z,969.2
2022-07-30T10:21:59.002Z,969
2022-07-30T10:26:41.329Z,968.9
2022-07-30T10:31:23.633Z,968.9
2022-07-30T10:36:05.825Z,968.8
2022-07-30T10:40:48.133Z,968.6
2022-07-30T10:45:30.443Z,968.6
2022-07-30T10:50:12.766Z,968.4
2022-07-30T10:54:54.964Z,968.2
2022-07-30T10:59:37.277Z,968.3
2022-07-30T11:04:19.580Z,968.4
2022-07-30T11:09:01.807Z,968
2022-07-30T11:13:44.102Z,968.3
2022-07-30T11:18:26.435Z,968.1
2022-07-30T11:23:07.723Z,968.1
2022-07-30T11:27:50.032Z,968.2
2022-07-30T11:32:32.238Z,968
2022-07-30T11:37:14.547Z,968.2
2022-07-30T11:41:56.860Z,968.2
2022-07-30T11:46:39.059Z,968
2022-07-30T11:51:21.367Z,968
2022-07-30T12:00:45.989Z,968
2022-07-30T12:05:28.215Z,968.2
2022-07-30T12:10:10.507Z,968.3
2022-07-30T12:14:52.845Z,968.2
2022-07-30T12:19:35.028Z,968.2
2022-07-30T12:24:16.335Z,968.2
2022-07-30T12:28:58.647Z,968.1
2022-07-30T12:33:40.956Z,968.2
2022-07-30T12:38:23.160Z,968.2
2022-07-30T12:43:05.473Z,968
2022-07-30T12:47:47.781Z,968
2022-07-30T12:52:30.091Z,968
2022-07-30T12:57:12.330Z,968
2022-07-30T13:01:54.614Z,967.9
2022-07-30T13:06:36.915Z,968.1
2022-07-30T13:11:19.129Z,968.1
2022-07-30T13:16:01.433Z,968.1
2022-07-30T13:20:43.743Z,968.4
2022-07-30T13:25:25.049Z,968.4
2022-07-30T13:30:07.256Z,968.5
2022-07-30T13:34:49.565Z,968.6
2022-07-30T13:39:31.875Z,968.5
2022-07-30T13:44:14.186Z,968.5
2022-07-30T13:48:56.397Z,968.5
2022-07-30T13:53:37.699Z,968.4
2022-07-30T13:58:20.020Z,968.4
2022-07-30T14:03:02.318Z,968.4
2022-07-30T14:07:44.527Z,968.4
2022-07-30T14:12:26.836Z,968.4
2022-07-30T14:17:09.145Z,968.2
2022-07-30T14:21:51.361Z,968.2
2022-07-30T14:26:33.662Z,968.1
2022-07-30T14:31:15.969Z,968
2022-07-30T14:35:58.280Z,968.1
2022-07-30T14:40:40.487Z,968
2022-07-30T14:45:22.800Z,968
2022-07-30T14:50:05.112Z,967.8
2022-07-30T14:54:46.418Z,967.8
2022-07-30T14:59:28.622Z,967.8
2022-07-30T15:04:10.933Z,967.8
2022-07-30T15:08:53.245Z,967.9
2022-07-30T15:13:35.450Z,968
2022-07-30T15:18:17.762Z,968
2022-07-30T15:23:00.076Z,968.1
2022-07-30T15:27:42.387Z,968.1
2022-07-30T15:32:24.590Z,968.2
2022-07-30T15:37:06.892Z,968.2
2022-07-30T15:41:49.203Z,968.1
2022-07-30T15:46:31.411Z,968.2
2022-07-30T15:51:13.721Z,968.1
2022-07-30T15:55:55.045Z,968.1
2022-07-30T16:00:37.343Z,968.1
2022-07-30T16:05:19.559Z,968.1
2022-07-30T16:10:01.856Z,968.2
2022-07-30T16:14:44.159Z,968.2
2022-07-30T16:19:26.487Z,968.3
2022-07-30T16:24:08.682Z,968.4
2022-07-30T16:28:50.988Z,968.5
2022-07-30T16:33:33.294Z,968.5
2022-07-30T16:38:15.502Z,968.6
2022-07-30T16:42:57.813Z,968.6
2022-07-30T16:47:40.121Z,968.6
2022-07-30T16:52:22.332Z,968.6
2022-07-30T16:57:03.637Z,968.6
2022-07-30T17:01:45.942Z,968.7
2022-07-30T17:06:28.250Z,968.7
2022-07-30T17:11:10.514Z,968.7
2022-07-30T17:15:52.795Z,968.7
2022-07-30T17:20:35.082Z,968.8
2022-07-30T17:25:17.385Z,968.8
2022-07-30T17:29:59.604Z,968.9
2022-07-30T17:34:41.943Z,969
2022-07-30T17:39:24.211Z,968.9
2022-07-30T17:44:06.426Z,968.9
2022-07-30T17:48:48.735Z,968.9
2022-07-30T17:53:31.039Z,969
2022-07-30T17:58:12.346Z,969
2022-07-30T18:02:54.558Z,969
2022-07-30T18:07:36.874Z,969
2022-07-30T18:12:19.176Z,969
2022-07-30T18:17:01.383Z,969.1
2022-07-30T18:21:43.694Z,969.1
2022-07-30T18:26:26.009Z,969.2
2022-07-30T18:31:08.317Z,969.3
2022-07-30T18:35:50.519Z,969.4
2022-07-30T18:40:32.829Z,969.4
2022-07-30T18:45:15.142Z,969.4
2022-07-30T18:49:57.346Z,969.5
2022-07-30T18:54:39.660Z,969.6
2022-07-30T18:59:20.964Z,969.5
2022-07-30T19:04:03.270Z,969.6
2022-07-30T19:08:45.480Z,969.6
2022-07-30T19:13:27.791Z,969.7
2022-07-30T19:18:10.096Z,969.8
2022-07-30T19:22:52.319Z,969.8
2022-07-30T19:27:34.614Z,969.9
2022-07-30T19:32:16.925Z,969.9
2022-07-30T19:36:59.132Z,970
2022-07-30T19:41:41.452Z,970
2022-07-30T19:46:23.769Z,970.1
2022-07-30T19:51:06.071Z,970.1
2022-07-30T19:55:48.265Z,970.1
2022-07-30T20:00:29.582Z,970.1
2022-07-30T20:05:11.884Z,970.2
2022-07-30T20:09:54.214Z,970.2
2022-07-30T20:14:36.402Z,970.2
2022-07-30T20:19:18.741Z,970.3
2022-07-30T20:24:01.017Z,970.3
2022-07-30T20:28:43.230Z,970.4
2022-07-30T20:33:25.543Z,970.4
2022-07-30T20:38:07.841Z,970.4
2022-07-30T20:42:50.056Z,970.4
2022-07-30T20:47:32.363Z,970.4
2022-07-30T20:52:14.680Z,970.5
2022-07-30T20:56:57.008Z,970.5
2022-07-30T21:01:38.213Z,970.5
2022-07-30T21:06:20.494Z,970.6
2022-07-30T21:11:02.824Z,970.5
2022-07-30T21:15:45.134Z,970.5
2022-07-30T21:20:27.323Z,970.6
2022-07-30T21:25:09.634Z,970.5
2022-07-30T21:29:51.938Z,970.5
2022-07-30T21:34:34.152Z,970.6
2022-07-30T21:39:16.455Z,970.7
2022-07-30T21:43:58.765Z,970.7
2022-07-30T21:48:40.986Z,970.6
2022-07-30T21:53:23.281Z,970.7
2022-07-30T21:58:05.582Z,970.6
2022-07-30T22:02:46.892Z,970.7
2022-07-30T22:07:29.106Z,970.7
2022-07-30T22:12:11.410Z,970.8
2022-07-30T22:16:53.725Z,970.8
2022-07-30T22:21:35.928Z,970.8
2022-07-30T22:26:18.247Z,970.8
2022-07-30T22:31:00.540Z,970.7
2022-07-30T22:35:42.862Z,970.7
2022-07-30T22:40:25.063Z,970.7
2022-07-30T22:45:07.375Z,970.8
2022-07-30T22:49:49.684Z,970.8
2022-07-30T22:54:31.901Z,970.8
2022-07-30T22:59:14.198Z,970.8
2022-07-30T23:03:55.502Z,970.7
2022-07-30T23:08:37.829Z,970.7
2022-07-30T23:13:20.020Z,970.7
2022-07-30T23:18:02.332Z,970.7
2022-07-30T23:22:44.636Z,970.8
2022-07-30T23:27:26.944Z,970.8
2022-07-30T23:32:09.156Z,970.8
2022-07-30T23:36:51.463Z,970.8
2022-07-30T23:41:33.784Z,970.8
2022-07-30T23:46:15.980Z,970.8
2022-07-30T23:50:58.294Z,970.9
2022-07-30T23:55:40.607Z,971
